Salt Lake City, Utah
Traffic Map
Current Weather Conditions
Salt Lake City, Utah
Broken Clouds
Broken Clouds
69°
Feels Like: 69°
Wind Chill: 69° Ceiling: 8500
Heat Index: 69° Visibility: 10mi
Dew Point: 48° Wind: 7mph
Humidity: 47% Direction: 340° (NNW)
Pressure: 30in Gusts: 0mph
Raw Report DataKSLC 272353Z 34006KT 10SM SCT065 BKN085 BKN170 21/09 A3000 RMK AO2 SLP127 CB DSNT W-NW T02060089 10217 20150 56010
Traffic Incident Summary
Active as of:
Severity:
Category:
InformationThere was an issue retrieving the traffic information for this location. Please try a different location or try again shortly.
Advertisements
Track Severe Weather on mobile